Pollux — OP2556 — position and weather

sailwx.info

Track history (hours):
 
Tides and Currents Weather Stations Pressure Air Temp Water Temp Dewpoint Dewpoint Depression Visibility Wind Speed Wind Dir Waves Ship Positions

Pollux

Last reported at 2018-Jun-19 02:54 UTC. Time now 2018-Jun-20 21:04 UTC.
Position N 36°55' W 023°41'.

Length 14 m.

Type: Sailing vessel. MMSI: 205255630.

Date/timePositionNaut miles runAvg speedWind from/ knotsBaromVisibWave heightAir tempDewpointWater temp
2018-Jun-19 02:54N 36°55' W 023°41'5 7.0
2018-Jun-19 02:10N 36°59' W 023°45'5 6.5
2018-Jun-19 01:26N 37°00' W 023°51'4 6.4
2018-Jun-19 00:45N 37°03' W 023°55'3 7.1
2018-Jun-19 00:20N 37°05' W 023°58'3 7.3
2018-Jun-18 23:58N 37°06' W 024°01'3 6.8
2018-Jun-18 23:30N 37°08' W 024°04'3 6.6
2018-Jun-18 23:00N 37°10' W 024°08'4 7.1
2018-Jun-18 22:30N 37°11' W 024°12'3 7.0
2018-Jun-18 22:00N 37°13' W 024°16'3 6.7
2018-Jun-18 21:30N 37°15' W 024°19'3 5.8
2018-Jun-18 21:00N 37°17' W 024°22'3 6.6
2018-Jun-18 20:30N 37°18' W 024°25'3 6.4
2018-Jun-18 20:00N 37°20' W 024°29'3 5.9
2018-Jun-18 19:30N 37°22' W 024°32'3 5.6
2018-Jun-18 19:00N 37°23' W 024°35'3 6.5
2018-Jun-18 18:30N 37°25' W 024°38'3 6.2
2018-Jun-18 18:00N 37°27' W 024°41'3 5.8
2018-Jun-18 17:30N 37°28' W 024°45'3 6.8
2018-Jun-18 17:00N 37°30' W 024°48'3 6.3
2018-Jun-18 16:30N 37°32' W 024°51'3 5.3
2018-Jun-18 16:00N 37°34' W 024°54'3 6.8
2018-Jun-18 15:30N 37°35' W 024°58'3 6.6
2018-Jun-18 15:00N 37°36' W 025°02'3 6.6
2018-Jun-18 14:30N 37°37' W 025°06'3 6.6
2018-Jun-18 14:00N 37°39' W 025°09'3 6.5
2018-Jun-18 13:30N 37°40' W 025°13'3 6.3
2018-Jun-18 13:00N 37°39' W 025°17'3 6.2
2018-Jun-18 12:30N 37°39' W 025°21'3 6.5
2018-Jun-18 12:00N 37°40' W 025°25'3 6.6
2018-Jun-18 11:29N 37°40' W 025°30'3 6.1
2018-Jun-18 10:58N 37°42' W 025°33'3 6.4
2018-Jun-18 10:30N 37°43' W 025°37'3 5.4
2018-Jun-18 09:59N 37°44' W 025°40'0 0.6
2018-Jun-18 09:30N 37°44' W 025°40'0 0.2
2018-Jun-18 08:59N 37°44' W 025°40'  
2018-Jun-13 21:27N 37°44' W 025°40'0 0.1
2018-Jun-13 21:00N 37°44' W 025°40'1 2.2
2018-Jun-13 20:30N 37°43' W 025°41'4 7.0
2018-Jun-13 20:00N 37°44' W 025°45'4 7.3
2018-Jun-13 19:30N 37°46' W 025°49'4 7.4
2018-Jun-13 19:00N 37°48' W 025°53'4 7.4
2018-Jun-13 18:30N 37°50' W 025°57'3 5.9
2018-Jun-13 18:00N 37°52' W 025°59'3 5.0
2018-Jun-13 17:30N 37°54' W 026°02'3 5.5
2018-Jun-13 17:00N 37°56' W 026°04'3 6.1
2018-Jun-13 16:31N 37°58' W 026°07'3 6.7
2018-Jun-13 16:00N 38°00' W 026°10'4 7.2
2018-Jun-13 15:30N 38°03' W 026°13'4 7.2
2018-Jun-13 15:01N 38°06' W 026°16'4 7.1
2018-Jun-13 14:29N 38°08' W 026°19'3 7.1
2018-Jun-13 14:00N 38°11' W 026°22'4 6.9
2018-Jun-13 13:28N 38°14' W 026°25'3 6.5
2018-Jun-13 13:00N 38°16' W 026°28'2 5.1
2018-Jun-13 12:30N 38°18' W 026°30'3 5.7
2018-Jun-13 12:01N 38°19' W 026°33'3 6.1
2018-Jun-13 11:30N 38°20' W 026°37'4 6.4
2018-Jun-13 10:49N 38°21' W 026°42'48 1.0
2018-Jun-11 13:16N 38°30' W 027°42'2 5.8
2018-Jun-11 12:55N 38°30' W 027°45'3 6.1
2018-Jun-11 12:25N 38°30' W 027°49'3 7.1
2018-Jun-11 11:59N 38°31' W 027°52'3 6.9
2018-Jun-11 11:30N 38°32' W 027°56'3 6.7
2018-Jun-11 11:00N 38°34' W 028°00'3 6.6
2018-Jun-11 10:30N 38°35' W 028°04'3 6.3
2018-Jun-11 09:59N 38°36' W 028°08'3 6.2
2018-Jun-11 09:30N 38°38' W 028°11'3 5.2
2018-Jun-11 09:00N 38°40' W 028°12'1 0.0
2018-Jun-09 13:47N 38°41' W 028°12'0 1.5
2018-Jun-09 13:30N 38°40' W 028°12'3 6.7
2018-Jun-09 13:00N 38°39' W 028°16'4 7.1
2018-Jun-09 12:30N 38°38' W 028°21'4 7.1
2018-Jun-09 12:00N 38°36' W 028°25'4 7.3
2018-Jun-09 11:29N 38°35' W 028°29'3 7.0
2018-Jun-09 11:00N 38°34' W 028°33'3 6.4
2018-Jun-09 10:30N 38°32' W 028°37'  
Track history (hours):
 
Tides and Currents Weather Stations Pressure Air Temp Water Temp Dewpoint Dewpoint Depression Visibility Wind Speed Wind Dir Waves Ship Positions

Pollux

Last reported at 2018-Jun-19 02:54 UTC. Time now 2018-Jun-20 21:04 UTC.
Position N 36°55' W 023°41'.

Length 14 m.

Type: Sailing vessel. MMSI: 205255630.

Date/timePositionNaut miles runAvg speedWind from/ knotsBaromVisibWave heightAir tempDewpointWater temp
2018-Jun-19 02:54N 36°55' W 023°41'5 7.0
2018-Jun-19 02:10N 36°59' W 023°45'5 6.5
2018-Jun-19 01:26N 37°00' W 023°51'4 6.4
2018-Jun-19 00:45N 37°03' W 023°55'3 7.1
2018-Jun-19 00:20N 37°05' W 023°58'3 7.3
2018-Jun-18 23:58N 37°06' W 024°01'3 6.8
2018-Jun-18 23:30N 37°08' W 024°04'3 6.6
2018-Jun-18 23:00N 37°10' W 024°08'4 7.1
2018-Jun-18 22:30N 37°11' W 024°12'3 7.0
2018-Jun-18 22:00N 37°13' W 024°16'3 6.7
2018-Jun-18 21:30N 37°15' W 024°19'3 5.8
2018-Jun-18 21:00N 37°17' W 024°22'3 6.6
2018-Jun-18 20:30N 37°18' W 024°25'3 6.4
2018-Jun-18 20:00N 37°20' W 024°29'3 5.9
2018-Jun-18 19:30N 37°22' W 024°32'3 5.6
2018-Jun-18 19:00N 37°23' W 024°35'3 6.5
2018-Jun-18 18:30N 37°25' W 024°38'3 6.2
2018-Jun-18 18:00N 37°27' W 024°41'3 5.8
2018-Jun-18 17:30N 37°28' W 024°45'3 6.8
2018-Jun-18 17:00N 37°30' W 024°48'3 6.3
2018-Jun-18 16:30N 37°32' W 024°51'3 5.3
2018-Jun-18 16:00N 37°34' W 024°54'3 6.8
2018-Jun-18 15:30N 37°35' W 024°58'3 6.6
2018-Jun-18 15:00N 37°36' W 025°02'3 6.6
2018-Jun-18 14:30N 37°37' W 025°06'3 6.6
2018-Jun-18 14:00N 37°39' W 025°09'3 6.5
2018-Jun-18 13:30N 37°40' W 025°13'3 6.3
2018-Jun-18 13:00N 37°39' W 025°17'3 6.2
2018-Jun-18 12:30N 37°39' W 025°21'3 6.5
2018-Jun-18 12:00N 37°40' W 025°25'3 6.6
2018-Jun-18 11:29N 37°40' W 025°30'3 6.1
2018-Jun-18 10:58N 37°42' W 025°33'3 6.4
2018-Jun-18 10:30N 37°43' W 025°37'3 5.4
2018-Jun-18 09:59N 37°44' W 025°40'0 0.6
2018-Jun-18 09:30N 37°44' W 025°40'0 0.2
2018-Jun-18 08:59N 37°44' W 025°40'  
2018-Jun-13 21:27N 37°44' W 025°40'0 0.1
2018-Jun-13 21:00N 37°44' W 025°40'1 2.2
2018-Jun-13 20:30N 37°43' W 025°41'4 7.0
2018-Jun-13 20:00N 37°44' W 025°45'4 7.3
2018-Jun-13 19:30N 37°46' W 025°49'4 7.4
2018-Jun-13 19:00N 37°48' W 025°53'4 7.4
2018-Jun-13 18:30N 37°50' W 025°57'3 5.9
2018-Jun-13 18:00N 37°52' W 025°59'3 5.0
2018-Jun-13 17:30N 37°54' W 026°02'3 5.5
2018-Jun-13 17:00N 37°56' W 026°04'3 6.1
2018-Jun-13 16:31N 37°58' W 026°07'3 6.7
2018-Jun-13 16:00N 38°00' W 026°10'4 7.2
2018-Jun-13 15:30N 38°03' W 026°13'4 7.2
2018-Jun-13 15:01N 38°06' W 026°16'4 7.1
2018-Jun-13 14:29N 38°08' W 026°19'3 7.1
2018-Jun-13 14:00N 38°11' W 026°22'4 6.9
2018-Jun-13 13:28N 38°14' W 026°25'3 6.5
2018-Jun-13 13:00N 38°16' W 026°28'2 5.1
2018-Jun-13 12:30N 38°18' W 026°30'3 5.7
2018-Jun-13 12:01N 38°19' W 026°33'3 6.1
2018-Jun-13 11:30N 38°20' W 026°37'4 6.4
2018-Jun-13 10:49N 38°21' W 026°42'48 1.0
2018-Jun-11 13:16N 38°30' W 027°42'2 5.8
2018-Jun-11 12:55N 38°30' W 027°45'3 6.1
2018-Jun-11 12:25N 38°30' W 027°49'3 7.1
2018-Jun-11 11:59N 38°31' W 027°52'3 6.9
2018-Jun-11 11:30N 38°32' W 027°56'3 6.7
2018-Jun-11 11:00N 38°34' W 028°00'3 6.6
2018-Jun-11 10:30N 38°35' W 028°04'3 6.3
2018-Jun-11 09:59N 38°36' W 028°08'3 6.2
2018-Jun-11 09:30N 38°38' W 028°11'3 5.2
2018-Jun-11 09:00N 38°40' W 028°12'1 0.0
2018-Jun-09 13:47N 38°41' W 028°12'0 1.5
2018-Jun-09 13:30N 38°40' W 028°12'3 6.7
2018-Jun-09 13:00N 38°39' W 028°16'4 7.1
2018-Jun-09 12:30N 38°38' W 028°21'4 7.1
2018-Jun-09 12:00N 38°36' W 028°25'4 7.3
2018-Jun-09 11:29N 38°35' W 028°29'3 7.0
2018-Jun-09 11:00N 38°34' W 028°33'3 6.4
2018-Jun-09 10:30N 38°32' W 028°37'  

Dump ship's entire track history